sensor_id;sensor_type;location;lat;lon;timestamp;pressure;altitude;pressure_sealevel;temperature;humidity
28701;BME280;15877;52.344;16.790;2024-01-30T00:01:45;102154.58;;;5.76;65.74
28701;BME280;15877;52.344;16.790;2024-01-30T00:04:18;102163.73;;;5.81;65.90
28701;BME280;15877;52.344;16.790;2024-01-30T00:06:52;102163.58;;;5.81;65.86
28701;BME280;15877;52.344;16.790;2024-01-30T00:09:25;102166.48;;;5.70;66.15
28701;BME280;15877;52.344;16.790;2024-01-30T00:11:57;102163.95;;;5.71;66.02
28701;BME280;15877;52.344;16.790;2024-01-30T00:14:29;102172.84;;;5.75;65.96
28701;BME280;15877;52.344;16.790;2024-01-30T00:17:02;102167.78;;;5.74;66.10
28701;BME280;15877;52.344;16.790;2024-01-30T00:19:36;102167.45;;;5.74;66.18
28701;BME280;15877;52.344;16.790;2024-01-30T00:22:08;102169.59;;;5.75;66.10
28701;BME280;15877;52.344;16.790;2024-01-30T00:24:40;102153.63;;;5.66;66.07
28701;BME280;15877;52.344;16.790;2024-01-30T00:27:13;102162.04;;;5.75;66.22
28701;BME280;15877;52.344;16.790;2024-01-30T00:29:45;102159.98;;;5.73;66.32
28701;BME280;15877;52.344;16.790;2024-01-30T00:32:17;102158.24;;;5.79;66.11
28701;BME280;15877;52.344;16.790;2024-01-30T00:34:51;102157.21;;;5.77;66.21
28701;BME280;15877;52.344;16.790;2024-01-30T00:37:24;102157.38;;;5.79;66.24
28701;BME280;15877;52.344;16.790;2024-01-30T00:39:56;102148.52;;;5.82;66.11
28701;BME280;15877;52.344;16.790;2024-01-30T00:42:29;102152.04;;;5.83;65.97
28701;BME280;15877;52.344;16.790;2024-01-30T00:45:01;102149.75;;;5.80;66.13
28701;BME280;15877;52.344;16.790;2024-01-30T00:47:33;102146.98;;;5.83;66.10
28701;BME280;15877;52.344;16.790;2024-01-30T00:50:09;102156.94;;;5.77;66.26
28701;BME280;15877;52.344;16.790;2024-01-30T00:52:41;102149.16;;;5.70;66.25
28701;BME280;15877;52.344;16.790;2024-01-30T00:55:16;102156.45;;;5.76;66.27
28701;BME280;15877;52.344;16.790;2024-01-30T00:57:48;102154.08;;;5.76;66.12
28701;BME280;15877;52.344;16.790;2024-01-30T01:00:21;102156.17;;;5.71;66.27
28701;BME280;15877;52.344;16.790;2024-01-30T01:02:59;102153.33;;;5.73;66.27
28701;BME280;15877;52.344;16.790;2024-01-30T01:05:32;102150.90;;;5.73;66.27
28701;BME280;15877;52.344;16.790;2024-01-30T01:08:05;102150.18;;;5.74;66.17
28701;BME280;15877;52.344;16.790;2024-01-30T01:10:37;102150.49;;;5.75;66.10
28701;BME280;15877;52.344;16.790;2024-01-30T01:13:09;102147.86;;;5.75;65.88
28701;BME280;15877;52.344;16.790;2024-01-30T01:15:42;102150.71;;;5.76;65.86
28701;BME280;15877;52.344;16.790;2024-01-30T01:18:14;102145.86;;;5.76;65.93
28701;BME280;15877;52.344;16.790;2024-01-30T01:20:46;102144.34;;;5.73;65.94
28701;BME280;15877;52.344;16.790;2024-01-30T01:23:21;102142.88;;;5.70;65.95
28701;BME280;15877;52.344;16.790;2024-01-30T01:25:53;102140.63;;;5.70;65.93
28701;BME280;15877;52.344;16.790;2024-01-30T01:28:30;102138.55;;;5.74;65.79
28701;BME280;15877;52.344;16.790;2024-01-30T01:31:04;102144.16;;;5.75;65.71
28701;BME280;15877;52.344;16.790;2024-01-30T01:33:37;102145.20;;;5.75;65.64
28701;BME280;15877;52.344;16.790;2024-01-30T01:36:09;102147.60;;;5.74;65.48
28701;BME280;15877;52.344;16.790;2024-01-30T01:38:41;102145.18;;;5.72;65.47
28701;BME280;15877;52.344;16.790;2024-01-30T01:41:14;102138.30;;;5.71;65.59
28701;BME280;15877;52.344;16.790;2024-01-30T01:43:46;102143.44;;;5.71;65.38
28701;BME280;15877;52.344;16.790;2024-01-30T01:46:18;102131.16;;;5.62;65.37
28701;BME280;15877;52.344;16.790;2024-01-30T01:48:51;102142.84;;;5.69;65.30
28701;BME280;15877;52.344;16.790;2024-01-30T01:51:24;102144.34;;;5.68;65.19
28701;BME280;15877;52.344;16.790;2024-01-30T01:54:00;102147.42;;;5.68;65.05
28701;BME280;15877;52.344;16.790;2024-01-30T01:56:34;102149.25;;;5.68;65.03
28701;BME280;15877;52.344;16.790;2024-01-30T01:59:08;102150.90;;;5.67;65.03
28701;BME280;15877;52.344;16.790;2024-01-30T02:01:41;102153.12;;;5.67;65.04
28701;BME280;15877;52.344;16.790;2024-01-30T02:04:14;102137.03;;;5.60;65.06
28701;BME280;15877;52.344;16.790;2024-01-30T02:06:47;102148.80;;;5.69;64.88
28701;BME280;15877;52.344;16.790;2024-01-30T02:09:20;102148.17;;;5.66;64.96
28701;BME280;15877;52.344;16.790;2024-01-30T02:11:52;102141.05;;;5.66;65.03
28701;BME280;15877;52.344;16.790;2024-01-30T02:14:24;102124.29;;;5.55;65.06
28701;BME280;15877;52.344;16.790;2024-01-30T02:17:00;102141.77;;;5.60;65.09
28701;BME280;15877;52.344;16.790;2024-01-30T02:19:33;102138.59;;;5.57;65.24
28701;BME280;15877;52.344;16.790;2024-01-30T02:22:06;102137.11;;;5.56;65.43
28701;BME280;15877;52.344;16.790;2024-01-30T02:24:39;102140.81;;;5.55;65.53
28701;BME280;15877;52.344;16.790;2024-01-30T02:27:12;102139.33;;;5.55;65.53
28701;BME280;15877;52.344;16.790;2024-01-30T02:29:44;102136.95;;;5.56;65.50
28701;BME280;15877;52.344;16.790;2024-01-30T02:32:16;102137.27;;;5.57;65.48
28701;BME280;15877;52.344;16.790;2024-01-30T02:34:48;102135.30;;;5.55;65.44
28701;BME280;15877;52.344;16.790;2024-01-30T02:37:22;102137.81;;;5.58;65.47
28701;BME280;15877;52.344;16.790;2024-01-30T02:39:54;102134.33;;;5.60;65.26
28701;BME280;15877;52.344;16.790;2024-01-30T02:42:26;102131.30;;;5.58;65.24
28701;BME280;15877;52.344;16.790;2024-01-30T02:44:59;102134.13;;;5.58;65.26
28701;BME280;15877;52.344;16.790;2024-01-30T02:47:31;102136.38;;;5.56;65.10
28701;BME280;15877;52.344;16.790;2024-01-30T02:50:03;102135.61;;;5.57;65.13
28701;BME280;15877;52.344;16.790;2024-01-30T02:52:36;102129.98;;;5.58;65.22
28701;BME280;15877;52.344;16.790;2024-01-30T02:55:10;102131.65;;;5.56;65.14
28701;BME280;15877;52.344;16.790;2024-01-30T02:57:43;102129.89;;;5.50;65.34
28701;BME280;15877;52.344;16.790;2024-01-30T03:00:16;102126.73;;;5.56;65.21
28701;BME280;15877;52.344;16.790;2024-01-30T03:02:50;102129.37;;;5.59;65.03
28701;BME280;15877;52.344;16.790;2024-01-30T03:05:22;102123.52;;;5.58;64.85
28701;BME280;15877;52.344;16.790;2024-01-30T03:07:54;102127.46;;;5.56;64.92
28701;BME280;15877;52.344;16.790;2024-01-30T03:10:27;102107.31;;;5.47;64.86
28701;BME280;15877;52.344;16.790;2024-01-30T03:13:00;102123.11;;;5.55;64.98
28701;BME280;15877;52.344;16.790;2024-01-30T03:15:32;102122.52;;;5.54;64.89
28701;BME280;15877;52.344;16.790;2024-01-30T03:18:05;102123.15;;;5.52;65.05
28701;BME280;15877;52.344;16.790;2024-01-30T03:20:37;102123.39;;;5.49;65.07
28701;BME280;15877;52.344;16.790;2024-01-30T03:23:10;102120.92;;;5.48;65.16
28701;BME280;15877;52.344;16.790;2024-01-30T03:25:42;102117.73;;;5.47;65.29
28701;BME280;15877;52.344;16.790;2024-01-30T03:28:14;102117.75;;;5.51;65.25
28701;BME280;15877;52.344;16.790;2024-01-30T03:30:47;102119.34;;;5.52;65.13
28701;BME280;15877;52.344;16.790;2024-01-30T03:33:19;102113.41;;;5.49;65.15
28701;BME280;15877;52.344;16.790;2024-01-30T03:35:52;102113.70;;;5.53;64.96
28701;BME280;15877;52.344;16.790;2024-01-30T03:38:24;102116.54;;;5.52;64.87
28701;BME280;15877;52.344;16.790;2024-01-30T03:40:57;102117.36;;;5.51;64.89
28701;BME280;15877;52.344;16.790;2024-01-30T03:43:29;102088.36;;;5.34;64.70
28701;BME280;15877;52.344;16.790;2024-01-30T03:46:02;102109.54;;;5.51;64.99
28701;BME280;15877;52.344;16.790;2024-01-30T03:48:38;102116.80;;;5.52;65.04
28701;BME280;15877;52.344;16.790;2024-01-30T03:51:11;102116.06;;;5.49;65.11
28701;BME280;15877;52.344;16.790;2024-01-30T03:53:46;102113.20;;;5.47;65.31
28701;BME280;15877;52.344;16.790;2024-01-30T03:56:18;102109.79;;;5.48;65.06
28701;BME280;15877;52.344;16.790;2024-01-30T03:58:50;102111.69;;;5.44;65.01
28701;BME280;15877;52.344;16.790;2024-01-30T04:01:23;102112.77;;;5.42;65.09
28701;BME280;15877;52.344;16.790;2024-01-30T04:03:56;102109.98;;;5.38;65.19
28701;BME280;15877;52.344;16.790;2024-01-30T04:06:29;102111.52;;;5.40;65.43
28701;BME280;15877;52.344;16.790;2024-01-30T04:09:02;102118.16;;;5.37;65.43
28701;BME280;15877;52.344;16.790;2024-01-30T04:11:34;102097.71;;;5.29;65.47
28701;BME280;15877;52.344;16.790;2024-01-30T04:14:10;102117.36;;;5.44;65.39
28701;BME280;15877;52.344;16.790;2024-01-30T04:16:42;102120.14;;;5.43;65.33
28701;BME280;15877;52.344;16.790;2024-01-30T04:19:14;102120.64;;;5.42;65.48
28701;BME280;15877;52.344;16.790;2024-01-30T04:21:48;102119.52;;;5.44;65.51
28701;BME280;15877;52.344;16.790;2024-01-30T04:24:20;102121.47;;;5.41;65.59
28701;BME280;15877;52.344;16.790;2024-01-30T04:27:02;102124.32;;;5.38;65.68
28701;BME280;15877;52.344;16.790;2024-01-30T04:29:34;102124.15;;;5.39;65.57
28701;BME280;15877;52.344;16.790;2024-01-30T04:32:09;102117.46;;;5.40;65.45
28701;BME280;15877;52.344;16.790;2024-01-30T04:34:41;102121.32;;;5.40;65.56
28701;BME280;15877;52.344;16.790;2024-01-30T04:37:14;102120.88;;;5.40;65.44
28701;BME280;15877;52.344;16.790;2024-01-30T04:39:46;102119.91;;;5.38;65.51
28701;BME280;15877;52.344;16.790;2024-01-30T04:42:22;102122.91;;;5.35;65.63
28701;BME280;15877;52.344;16.790;2024-01-30T04:44:54;102119.95;;;5.33;65.65
28701;BME280;15877;52.344;16.790;2024-01-30T04:47:26;102119.72;;;5.34;65.55
28701;BME280;15877;52.344;16.790;2024-01-30T04:49:58;102124.27;;;5.36;65.49
28701;BME280;15877;52.344;16.790;2024-01-30T04:52:31;102116.83;;;5.37;65.40
28701;BME280;15877;52.344;16.790;2024-01-30T04:55:03;102124.05;;;5.38;65.45
28701;BME280;15877;52.344;16.790;2024-01-30T04:57:36;102120.70;;;5.36;65.46
28701;BME280;15877;52.344;16.790;2024-01-30T05:00:10;102121.29;;;5.37;65.60
28701;BME280;15877;52.344;16.790;2024-01-30T05:02:42;102118.48;;;5.37;65.60
28701;BME280;15877;52.344;16.790;2024-01-30T05:05:17;102118.56;;;5.33;65.54
28701;BME280;15877;52.344;16.790;2024-01-30T05:07:50;102118.00;;;5.29;65.60
28701;BME280;15877;52.344;16.790;2024-01-30T05:10:26;102122.00;;;5.32;65.67
28701;BME280;15877;52.344;16.790;2024-01-30T05:12:59;102119.09;;;5.31;65.52
28701;BME280;15877;52.344;16.790;2024-01-30T05:15:32;102120.58;;;5.25;65.83
28701;BME280;15877;52.344;16.790;2024-01-30T05:18:05;102122.96;;;5.28;65.96
28701;BME280;15877;52.344;16.790;2024-01-30T05:20:40;102122.83;;;5.32;65.80
28701;BME280;15877;52.344;16.790;2024-01-30T05:23:12;102125.91;;;5.31;65.88
28701;BME280;15877;52.344;16.790;2024-01-30T05:25:45;102119.81;;;5.29;65.75
28701;BME280;15877;52.344;16.790;2024-01-30T05:28:19;102129.44;;;5.31;65.81
28701;BME280;15877;52.344;16.790;2024-01-30T05:30:53;102124.36;;;5.33;65.91
28701;BME280;15877;52.344;16.790;2024-01-30T05:33:26;102124.81;;;5.32;65.76
28701;BME280;15877;52.344;16.790;2024-01-30T05:35:58;102123.33;;;5.32;65.77
28701;BME280;15877;52.344;16.790;2024-01-30T05:38:33;102123.60;;;5.30;65.95
28701;BME280;15877;52.344;16.790;2024-01-30T05:41:09;102123.40;;;5.36;65.74
28701;BME280;15877;52.344;16.790;2024-01-30T05:43:41;102124.05;;;5.38;65.73
28701;BME280;15877;52.344;16.790;2024-01-30T05:46:14;102125.80;;;5.38;65.59
28701;BME280;15877;52.344;16.790;2024-01-30T05:48:46;102127.61;;;5.39;65.48
28701;BME280;15877;52.344;16.790;2024-01-30T05:51:18;102115.34;;;5.30;65.52
28701;BME280;15877;52.344;16.790;2024-01-30T05:53:51;102122.98;;;5.38;65.50
28701;BME280;15877;52.344;16.790;2024-01-30T05:56:25;102121.58;;;5.41;65.57
28701;BME280;15877;52.344;16.790;2024-01-30T05:58:58;102120.58;;;5.43;65.40
28701;BME280;15877;52.344;16.790;2024-01-30T06:01:30;102123.20;;;5.45;65.23
28701;BME280;15877;52.344;16.790;2024-01-30T06:04:02;102121.85;;;5.41;65.24
28701;BME280;15877;52.344;16.790;2024-01-30T06:06:35;102122.65;;;5.39;65.24
28701;BME280;15877;52.344;16.790;2024-01-30T06:09:09;102122.48;;;5.40;65.31
28701;BME280;15877;52.344;16.790;2024-01-30T06:11:41;102126.19;;;5.39;65.40
28701;BME280;15877;52.344;16.790;2024-01-30T06:14:13;102123.50;;;5.37;65.41
28701;BME280;15877;52.344;16.790;2024-01-30T06:16:45;102112.87;;;5.30;65.34
28701;BME280;15877;52.344;16.790;2024-01-30T06:19:19;102124.34;;;5.41;65.32
28701;BME280;15877;52.344;16.790;2024-01-30T06:21:56;102123.86;;;5.40;65.23
28701;BME280;15877;52.344;16.790;2024-01-30T06:24:29;102111.70;;;5.30;65.25
28701;BME280;15877;52.344;16.790;2024-01-30T06:27:02;102100.23;;;5.19;65.39
28701;BME280;15877;52.344;16.790;2024-01-30T06:29:35;102121.79;;;5.29;65.44
28701;BME280;15877;52.344;16.790;2024-01-30T06:32:10;102124.01;;;5.29;65.56
28701;BME280;15877;52.344;16.790;2024-01-30T06:34:43;102126.61;;;5.34;65.60
28701;BME280;15877;52.344;16.790;2024-01-30T06:37:19;102121.65;;;5.28;65.63
28701;BME280;15877;52.344;16.790;2024-01-30T06:39:53;102125.53;;;5.31;65.76
28701;BME280;15877;52.344;16.790;2024-01-30T06:42:25;102123.76;;;5.32;65.69
28701;BME280;15877;52.344;16.790;2024-01-30T06:44:58;102120.50;;;5.33;65.56
28701;BME280;15877;52.344;16.790;2024-01-30T06:47:32;102125.27;;;5.35;65.51
28701;BME280;15877;52.344;16.790;2024-01-30T06:50:05;102124.63;;;5.35;65.64
28701;BME280;15877;52.344;16.790;2024-01-30T06:52:38;102124.07;;;5.33;65.60
28701;BME280;15877;52.344;16.790;2024-01-30T06:55:12;102119.80;;;5.31;65.55
28701;BME280;15877;52.344;16.790;2024-01-30T06:57:44;102119.92;;;5.30;65.74
28701;BME280;15877;52.344;16.790;2024-01-30T07:00:19;102108.29;;;5.24;65.73
28701;BME280;15877;52.344;16.790;2024-01-30T07:02:52;102117.86;;;5.33;65.90
28701;BME280;15877;52.344;16.790;2024-01-30T07:05:24;102117.15;;;5.32;65.92
28701;BME280;15877;52.344;16.790;2024-01-30T07:07:56;102118.68;;;5.33;65.92
28701;BME280;15877;52.344;16.790;2024-01-30T07:10:29;102119.58;;;5.33;66.07
28701;BME280;15877;52.344;16.790;2024-01-30T07:13:03;102123.80;;;5.34;66.23
28701;BME280;15877;52.344;16.790;2024-01-30T07:15:36;102125.21;;;5.37;66.18
28701;BME280;15877;52.344;16.790;2024-01-30T07:18:09;102125.48;;;5.37;66.35
28701;BME280;15877;52.344;16.790;2024-01-30T07:20:41;102123.32;;;5.39;66.34
28701;BME280;15877;52.344;16.790;2024-01-30T07:23:17;102124.20;;;5.39;66.66
28701;BME280;15877;52.344;16.790;2024-01-30T07:25:50;102123.21;;;5.43;66.70
28701;BME280;15877;52.344;16.790;2024-01-30T07:28:22;102126.52;;;5.46;66.94
28701;BME280;15877;52.344;16.790;2024-01-30T07:30:54;102125.33;;;5.48;67.23
28701;BME280;15877;52.344;16.790;2024-01-30T07:33:27;102128.83;;;5.52;67.21
28701;BME280;15877;52.344;16.790;2024-01-30T07:35:59;102127.62;;;5.51;67.29
28701;BME280;15877;52.344;16.790;2024-01-30T07:38:32;102116.83;;;5.49;67.24
28701;BME280;15877;52.344;16.790;2024-01-30T07:41:05;102129.56;;;5.62;67.10
28701;BME280;15877;52.344;16.790;2024-01-30T07:43:37;102129.83;;;5.64;67.01
28701;BME280;15877;52.344;16.790;2024-01-30T07:46:10;102134.29;;;5.68;66.94
28701;BME280;15877;52.344;16.790;2024-01-30T07:48:42;102119.89;;;5.69;66.90
28701;BME280;15877;52.344;16.790;2024-01-30T07:51:14;102134.17;;;5.83;66.33
28701;BME280;15877;52.344;16.790;2024-01-30T07:53:54;102131.42;;;5.93;66.17
28701;BME280;15877;52.344;16.790;2024-01-30T07:56:29;102130.25;;;6.01;65.86
28701;BME280;15877;52.344;16.790;2024-01-30T07:59:01;102129.66;;;6.04;66.01
28701;BME280;15877;52.344;16.790;2024-01-30T08:01:33;102128.44;;;6.10;66.00
28701;BME280;15877;52.344;16.790;2024-01-30T08:04:06;102121.63;;;6.17;65.86
28701;BME280;15877;52.344;16.790;2024-01-30T08:06:38;102124.50;;;6.20;65.69
28701;BME280;15877;52.344;16.790;2024-01-30T08:09:14;102123.36;;;6.19;65.74
28701;BME280;15877;52.344;16.790;2024-01-30T08:11:46;102119.89;;;6.24;65.74
28701;BME280;15877;52.344;16.790;2024-01-30T08:14:18;102128.74;;;6.30;65.49
28701;BME280;15877;52.344;16.790;2024-01-30T08:16:51;102121.21;;;6.32;65.28
28701;BME280;15877;52.344;16.790;2024-01-30T08:19:23;102124.27;;;6.39;65.22
28701;BME280;15877;52.344;16.790;2024-01-30T08:21:55;102119.39;;;6.37;65.41
28701;BME280;15877;52.344;16.790;2024-01-30T08:24:27;102123.54;;;6.44;65.73
28701;BME280;15877;52.344;16.790;2024-01-30T08:27:00;102127.48;;;6.52;65.99
28701;BME280;15877;52.344;16.790;2024-01-30T08:29:33;102129.10;;;6.55;66.06
28701;BME280;15877;52.344;16.790;2024-01-30T08:32:07;102126.64;;;6.61;65.74
28701;BME280;15877;52.344;16.790;2024-01-30T08:34:39;102127.42;;;6.69;65.74
28701;BME280;15877;52.344;16.790;2024-01-30T08:37:12;102125.52;;;6.75;65.26
28701;BME280;15877;52.344;16.790;2024-01-30T08:39:47;102125.48;;;6.79;65.29
28701;BME280;15877;52.344;16.790;2024-01-30T08:42:19;102125.40;;;6.83;65.49
28701;BME280;15877;52.344;16.790;2024-01-30T08:44:53;102124.61;;;6.91;65.39
28701;BME280;15877;52.344;16.790;2024-01-30T08:47:27;102124.74;;;6.97;65.37
28701;BME280;15877;52.344;16.790;2024-01-30T08:49:59;102131.35;;;6.94;64.98
28701;BME280;15877;52.344;16.790;2024-01-30T08:52:32;102129.42;;;7.02;65.16
28701;BME280;15877;52.344;16.790;2024-01-30T08:55:05;102131.23;;;7.11;64.89
28701;BME280;15877;52.344;16.790;2024-01-30T08:57:37;102129.60;;;7.15;64.82
28701;BME280;15877;52.344;16.790;2024-01-30T09:00:11;102127.90;;;7.18;64.62
28701;BME280;15877;52.344;16.790;2024-01-30T09:02:44;102129.11;;;7.19;64.14
28701;BME280;15877;52.344;16.790;2024-01-30T09:05:16;102129.71;;;7.22;64.35
28701;BME280;15877;52.344;16.790;2024-01-30T09:07:49;102127.35;;;7.25;64.30
28701;BME280;15877;52.344;16.790;2024-01-30T09:10:22;102130.27;;;7.29;64.45
28701;BME280;15877;52.344;16.790;2024-01-30T09:12:54;102128.74;;;7.30;64.26
28701;BME280;15877;52.344;16.790;2024-01-30T09:15:26;102131.02;;;7.40;64.51
28701;BME280;15877;52.344;16.790;2024-01-30T09:17:59;102129.20;;;7.51;64.28
28701;BME280;15877;52.344;16.790;2024-01-30T09:20:32;102127.20;;;7.51;64.14
28701;BME280;15877;52.344;16.790;2024-01-30T09:23:05;102126.05;;;7.56;64.15
28701;BME280;15877;52.344;16.790;2024-01-30T09:25:37;102120.95;;;7.53;64.23
28701;BME280;15877;52.344;16.790;2024-01-30T09:28:09;102118.80;;;7.53;63.96
28701;BME280;15877;52.344;16.790;2024-01-30T09:30:41;102115.00;;;7.65;63.71
28701;BME280;15877;52.344;16.790;2024-01-30T09:33:14;102112.57;;;7.62;63.69
28701;BME280;15877;52.344;16.790;2024-01-30T09:35:47;102108.62;;;7.66;63.63
28701;BME280;15877;52.344;16.790;2024-01-30T09:38:19;102105.33;;;7.70;63.36
28701;BME280;15877;52.344;16.790;2024-01-30T09:40:54;102105.00;;;7.74;63.57
28701;BME280;15877;52.344;16.790;2024-01-30T09:43:34;102105.14;;;7.84;63.44
28701;BME280;15877;52.344;16.790;2024-01-30T09:46:07;102101.52;;;7.85;63.61
28701;BME280;15877;52.344;16.790;2024-01-30T09:48:41;102104.30;;;7.78;63.53
28701;BME280;15877;52.344;16.790;2024-01-30T09:51:15;102098.44;;;7.84;63.43
28701;BME280;15877;52.344;16.790;2024-01-30T09:53:49;102097.91;;;7.86;63.33
28701;BME280;15877;52.344;16.790;2024-01-30T09:56:22;102089.48;;;7.87;63.53
28701;BME280;15877;52.344;16.790;2024-01-30T09:58:54;102088.93;;;7.97;63.27
28701;BME280;15877;52.344;16.790;2024-01-30T10:01:26;102084.44;;;8.06;62.85
28701;BME280;15877;52.344;16.790;2024-01-30T10:03:59;102083.88;;;7.96;62.53
28701;BME280;15877;52.344;16.790;2024-01-30T10:06:33;102084.45;;;8.03;62.71
28701;BME280;15877;52.344;16.790;2024-01-30T10:09:07;102081.55;;;8.04;62.79
28701;BME280;15877;52.344;16.790;2024-01-30T10:11:40;102081.65;;;8.11;62.71
28701;BME280;15877;52.344;16.790;2024-01-30T10:14:12;102080.96;;;8.14;62.67
28701;BME280;15877;52.344;16.790;2024-01-30T10:16:47;102080.87;;;8.15;62.77
28701;BME280;15877;52.344;16.790;2024-01-30T10:19:18;102078.91;;;8.23;62.44
28701;BME280;15877;52.344;16.790;2024-01-30T10:21:50;102075.68;;;8.21;62.42
28701;BME280;15877;52.344;16.790;2024-01-30T10:24:26;102076.55;;;8.30;62.18
28701;BME280;15877;52.344;16.790;2024-01-30T10:27:00;102061.88;;;8.20;62.29
28701;BME280;15877;52.344;16.790;2024-01-30T10:29:33;102069.23;;;8.36;62.57
28701;BME280;15877;52.344;16.790;2024-01-30T10:32:08;102070.10;;;8.44;61.93
28701;BME280;15877;52.344;16.790;2024-01-30T10:34:40;102064.65;;;8.50;61.70
28701;BME280;15877;52.344;16.790;2024-01-30T10:37:12;102061.02;;;8.63;61.53
28701;BME280;15877;52.344;16.790;2024-01-30T10:39:45;102059.23;;;8.77;61.16
28701;BME280;15877;52.344;16.790;2024-01-30T10:42:19;102056.55;;;8.82;60.99
28701;BME280;15877;52.344;16.790;2024-01-30T10:45:00;102052.66;;;8.75;61.47
28701;BME280;15877;52.344;16.790;2024-01-30T10:47:36;102057.46;;;8.62;61.57
28701;BME280;15877;52.344;16.790;2024-01-30T10:50:10;102053.52;;;8.72;61.32
28701;BME280;15877;52.344;16.790;2024-01-30T10:52:44;102052.15;;;8.92;60.46
28701;BME280;15877;52.344;16.790;2024-01-30T10:55:17;102046.46;;;9.02;60.29
28701;BME280;15877;52.344;16.790;2024-01-30T10:57:50;102044.17;;;9.11;60.42
28701;BME280;15877;52.344;16.790;2024-01-30T11:00:22;102045.66;;;9.18;60.09
28701;BME280;15877;52.344;16.790;2024-01-30T11:02:55;102031.89;;;9.22;59.49
28701;BME280;15877;52.344;16.790;2024-01-30T11:05:29;102042.67;;;9.25;59.50
28701;BME280;15877;52.344;16.790;2024-01-30T11:08:13;102040.46;;;9.34;59.77
28701;BME280;15877;52.344;16.790;2024-01-30T11:10:49;102042.48;;;9.39;59.51
28701;BME280;15877;52.344;16.790;2024-01-30T11:13:22;102041.00;;;9.48;59.46
28701;BME280;15877;52.344;16.790;2024-01-30T11:15:54;102038.09;;;9.54;59.60
28701;BME280;15877;52.344;16.790;2024-01-30T11:18:28;102037.81;;;9.45;59.51
28701;BME280;15877;52.344;16.790;2024-01-30T11:21:00;102021.23;;;9.47;59.08
28701;BME280;15877;52.344;16.790;2024-01-30T11:23:34;102027.04;;;9.70;58.73
28701;BME280;15877;52.344;16.790;2024-01-30T11:26:08;102021.25;;;9.80;58.64
28701;BME280;15877;52.344;16.790;2024-01-30T11:28:42;102006.69;;;9.75;58.94
28701;BME280;15877;52.344;16.790;2024-01-30T11:31:20;102015.77;;;10.01;58.47
28701;BME280;15877;52.344;16.790;2024-01-30T11:33:55;102013.64;;;10.00;58.11
28701;BME280;15877;52.344;16.790;2024-01-30T11:36:28;102012.55;;;10.07;57.84
28701;BME280;15877;52.344;16.790;2024-01-30T11:39:01;102014.19;;;10.11;57.82
28701;BME280;15877;52.344;16.790;2024-01-30T11:41:34;102010.64;;;10.16;57.45
28701;BME280;15877;52.344;16.790;2024-01-30T11:44:09;102004.25;;;10.12;57.35
28701;BME280;15877;52.344;16.790;2024-01-30T11:46:41;101985.64;;;10.09;57.17
28701;BME280;15877;52.344;16.790;2024-01-30T11:49:14;101997.49;;;10.25;57.19
28701;BME280;15877;52.344;16.790;2024-01-30T11:51:47;101992.89;;;10.19;56.92
28701;BME280;15877;52.344;16.790;2024-01-30T11:54:20;101992.94;;;10.17;56.74
28701;BME280;15877;52.344;16.790;2024-01-30T11:56:52;101988.48;;;10.30;56.82
28701;BME280;15877;52.344;16.790;2024-01-30T11:59:25;101985.70;;;10.29;56.80
28701;BME280;15877;52.344;16.790;2024-01-30T12:01:57;101984.43;;;10.25;57.96
28701;BME280;15877;52.344;16.790;2024-01-30T12:04:30;101981.88;;;10.25;57.40
28701;BME280;15877;52.344;16.790;2024-01-30T12:07:03;101981.37;;;10.34;57.15
28701;BME280;15877;52.344;16.790;2024-01-30T12:09:35;101979.11;;;10.35;57.02
28701;BME280;15877;52.344;16.790;2024-01-30T12:12:08;101972.02;;;10.48;56.86
28701;BME280;15877;52.344;16.790;2024-01-30T12:14:43;101970.13;;;10.48;56.58
28701;BME280;15877;52.344;16.790;2024-01-30T12:17:26;101967.06;;;10.45;56.42
28701;BME280;15877;52.344;16.790;2024-01-30T12:20:06;101965.59;;;10.62;56.55
28701;BME280;15877;52.344;16.790;2024-01-30T12:22:40;101965.66;;;10.61;56.61
28701;BME280;15877;52.344;16.790;2024-01-30T12:25:14;101961.74;;;10.67;56.78
28701;BME280;15877;52.344;16.790;2024-01-30T12:27:48;101964.17;;;10.74;56.30
28701;BME280;15877;52.344;16.790;2024-01-30T12:30:20;101951.73;;;10.66;55.93
28701;BME280;15877;52.344;16.790;2024-01-30T12:32:53;101949.96;;;10.70;56.16
28701;BME280;15877;52.344;16.790;2024-01-30T12:35:26;101961.96;;;10.79;55.98
28701;BME280;15877;52.344;16.790;2024-01-30T12:38:05;101955.12;;;10.74;55.88
28701;BME280;15877;52.344;16.790;2024-01-30T12:40:37;101955.95;;;10.92;56.09
28701;BME280;15877;52.344;16.790;2024-01-30T12:43:10;101950.60;;;10.99;55.59
28701;BME280;15877;52.344;16.790;2024-01-30T12:45:46;101949.20;;;11.01;55.42
28701;BME280;15877;52.344;16.790;2024-01-30T12:48:18;101946.95;;;11.02;54.99
28701;BME280;15877;52.344;16.790;2024-01-30T12:50:51;101942.02;;;11.00;55.25
28701;BME280;15877;52.344;16.790;2024-01-30T12:53:24;101941.52;;;11.14;55.33
28701;BME280;15877;52.344;16.790;2024-01-30T12:55:56;101935.86;;;11.23;55.32
28701;BME280;15877;52.344;16.790;2024-01-30T12:58:28;101939.04;;;11.19;55.11
28701;BME280;15877;52.344;16.790;2024-01-30T13:01:01;101940.64;;;11.12;54.84
28701;BME280;15877;52.344;16.790;2024-01-30T13:03:33;101932.55;;;11.16;54.95
28701;BME280;15877;52.344;16.790;2024-01-30T13:06:07;101931.75;;;11.25;55.12
28701;BME280;15877;52.344;16.790;2024-01-30T13:08:40;101929.59;;;11.27;54.93
28701;BME280;15877;52.344;16.790;2024-01-30T13:11:12;101928.27;;;11.28;54.73
28701;BME280;15877;52.344;16.790;2024-01-30T13:13:51;101925.33;;;11.29;54.54
28701;BME280;15877;52.344;16.790;2024-01-30T13:16:23;101925.04;;;11.30;54.95
28701;BME280;15877;52.344;16.790;2024-01-30T13:18:56;101924.64;;;11.32;54.35